createdAt,value
2018-07-13T00:00:40.557Z,20.47
2018-07-13T00:01:40.671Z,20.47
2018-07-13T00:02:40.623Z,20.46
2018-07-13T00:03:40.618Z,20.43
2018-07-13T00:04:40.661Z,20.44
2018-07-13T00:05:40.587Z,20.4
2018-07-13T00:06:40.621Z,20.39
2018-07-13T00:07:40.573Z,20.4
2018-07-13T00:08:40.629Z,20.41
2018-07-13T00:09:40.578Z,20.4
2018-07-13T00:10:40.571Z,20.39
2018-07-13T00:11:40.594Z,20.39
2018-07-13T00:12:40.722Z,20.39
2018-07-13T00:13:40.562Z,20.41
2018-07-13T00:14:40.571Z,20.39
2018-07-13T00:15:40.562Z,20.43
2018-07-13T00:16:40.582Z,20.43
2018-07-13T00:17:40.591Z,20.39
2018-07-13T00:18:40.609Z,20.39
2018-07-13T00:19:40.574Z,20.37
2018-07-13T00:20:40.607Z,20.36
2018-07-13T00:21:40.570Z,20.34
2018-07-13T00:22:40.568Z,20.29
2018-07-13T00:23:40.610Z,20.2
2018-07-13T00:24:40.591Z,20.16
2018-07-13T00:25:40.592Z,20.12
2018-07-13T00:26:40.574Z,20.08
2018-07-13T00:27:40.558Z,20.08
2018-07-13T00:28:40.574Z,20.06
2018-07-13T00:29:40.625Z,20.02
2018-07-13T00:30:40.590Z,19.99
2018-07-13T00:31:40.582Z,20.02
2018-07-13T00:32:40.577Z,19.98
2018-07-13T00:33:40.600Z,19.99
2018-07-13T00:34:40.582Z,19.99
2018-07-13T00:35:40.582Z,19.95
2018-07-13T00:36:40.607Z,19.88
2018-07-13T00:37:40.615Z,19.85
2018-07-13T00:38:40.589Z,19.85
2018-07-13T00:39:40.614Z,19.84
2018-07-13T00:40:40.601Z,19.81
2018-07-13T00:41:40.601Z,19.82
2018-07-13T00:42:40.789Z,19.78
2018-07-13T00:43:40.626Z,19.74
2018-07-13T00:44:40.639Z,19.7
2018-07-13T00:45:40.709Z,19.7
2018-07-13T00:46:40.629Z,19.65
2018-07-13T00:47:40.650Z,19.65
2018-07-13T00:48:40.648Z,19.64
2018-07-13T00:49:40.593Z,19.51
2018-07-13T00:50:40.608Z,19.44
2018-07-13T00:51:40.614Z,19.27
2018-07-13T00:52:40.581Z,19.29
2018-07-13T00:53:40.603Z,19.29
2018-07-13T00:54:40.743Z,19.32
2018-07-13T00:55:40.631Z,19.27
2018-07-13T00:56:40.780Z,19.3
2018-07-13T00:57:40.618Z,19.29
2018-07-13T00:58:40.963Z,19.3
2018-07-13T00:59:40.692Z,19.32
2018-07-13T01:00:40.608Z,19.32
2018-07-13T01:01:40.822Z,19.32
2018-07-13T01:02:40.646Z,19.34
2018-07-13T01:03:40.773Z,19.34
2018-07-13T01:04:40.641Z,19.33
2018-07-13T01:05:40.657Z,19.3
2018-07-13T01:06:40.991Z,19.32
2018-07-13T01:07:40.602Z,19.34
2018-07-13T01:08:40.604Z,19.34
2018-07-13T01:09:40.601Z,19.36
2018-07-13T01:10:40.642Z,19.37
2018-07-13T01:11:40.598Z,19.37
2018-07-13T01:12:40.676Z,19.36
2018-07-13T01:13:40.625Z,19.37
2018-07-13T01:14:40.978Z,19.36
2018-07-13T01:15:40.623Z,19.33
2018-07-13T01:16:40.631Z,19.36
2018-07-13T01:17:40.656Z,19.34
2018-07-13T01:18:40.794Z,19.33
2018-07-13T01:19:40.631Z,19.33
2018-07-13T01:20:40.629Z,19.32
2018-07-13T01:21:40.608Z,19.32
2018-07-13T01:22:40.715Z,19.32
2018-07-13T01:23:40.608Z,19.29
2018-07-13T01:24:40.629Z,19.29
2018-07-13T01:25:40.634Z,19.21
2018-07-13T01:26:40.688Z,19.23
2018-07-13T01:27:40.603Z,19.23
2018-07-13T01:28:40.658Z,19.22
2018-07-13T01:29:40.655Z,19.25
2018-07-13T01:30:40.647Z,19.26
2018-07-13T01:31:40.622Z,19.26
2018-07-13T01:32:40.621Z,19.26
2018-07-13T01:33:40.657Z,19.29
2018-07-13T01:34:40.624Z,19.29
2018-07-13T01:35:40.649Z,19.27
2018-07-13T01:36:40.679Z,19.3
2018-07-13T01:37:40.628Z,19.3
2018-07-13T01:38:40.624Z,19.3
2018-07-13T01:39:40.626Z,19.27
2018-07-13T01:40:40.646Z,19.3
2018-07-13T01:41:40.614Z,19.3
2018-07-13T01:42:40.631Z,19.3
2018-07-13T01:43:40.627Z,19.32
2018-07-13T01:44:40.655Z,19.32
2018-07-13T01:45:40.649Z,19.32
2018-07-13T01:46:40.690Z,19.32
2018-07-13T01:47:40.652Z,19.3
2018-07-13T01:48:40.667Z,19.34
2018-07-13T01:49:40.652Z,19.33
2018-07-13T01:50:40.680Z,19.36
2018-07-13T01:51:40.675Z,19.37
2018-07-13T01:52:40.620Z,19.4
2018-07-13T01:53:40.638Z,19.4
2018-07-13T01:54:40.646Z,19.37
2018-07-13T01:55:41.230Z,19.36
2018-07-13T01:56:40.615Z,19.34
2018-07-13T01:57:40.624Z,19.36
2018-07-13T01:58:40.745Z,19.3
2018-07-13T01:59:40.801Z,19.3
2018-07-13T02:00:40.703Z,19.27
2018-07-13T02:01:40.782Z,19.26
2018-07-13T02:02:40.658Z,19.25
2018-07-13T02:03:40.680Z,19.19
2018-07-13T02:04:40.762Z,19.21
2018-07-13T02:05:40.684Z,19.22
2018-07-13T02:06:40.664Z,19.19
2018-07-13T02:07:40.647Z,19.17
2018-07-13T02:08:40.710Z,19.22
2018-07-13T02:09:40.671Z,19.21
2018-07-13T02:10:40.659Z,19.16
2018-07-13T02:11:40.655Z,19.13
2018-07-13T02:12:40.696Z,19.12
2018-07-13T02:13:40.667Z,19.09
2018-07-13T02:14:40.654Z,19.03
2018-07-13T02:15:40.674Z,19.01
2018-07-13T02:16:40.640Z,18.98
2018-07-13T02:17:40.637Z,18.98
2018-07-13T02:18:40.758Z,18.97
2018-07-13T02:19:40.660Z,18.89
2018-07-13T02:20:40.652Z,18.87
2018-07-13T02:21:40.658Z,18.85
2018-07-13T02:22:40.694Z,18.84
2018-07-13T02:23:40.668Z,18.81
2018-07-13T02:24:40.775Z,18.81
2018-07-13T02:25:40.645Z,18.77
2018-07-13T02:26:40.689Z,18.75
2018-07-13T02:27:40.699Z,18.7
2018-07-13T02:28:40.647Z,18.71
2018-07-13T02:29:41.123Z,18.68
2018-07-13T02:30:40.824Z,18.6
2018-07-13T02:31:40.657Z,18.61
2018-07-13T02:32:40.663Z,18.59
2018-07-13T02:33:40.709Z,18.6
2018-07-13T02:34:40.678Z,18.6
2018-07-13T02:35:40.781Z,18.6
2018-07-13T02:36:40.692Z,18.61
2018-07-13T02:37:40.696Z,18.61
2018-07-13T02:38:40.704Z,18.59
2018-07-13T02:39:40.687Z,18.59
2018-07-13T02:40:40.660Z,18.57
2018-07-13T02:41:40.828Z,18.6
2018-07-13T02:42:40.786Z,18.57
2018-07-13T02:43:40.705Z,18.54
2018-07-13T02:44:40.677Z,18.57
2018-07-13T02:45:40.699Z,18.57
2018-07-13T02:46:40.688Z,18.59
2018-07-13T02:47:40.657Z,18.56
2018-07-13T02:48:40.671Z,18.54
2018-07-13T02:49:40.761Z,18.54
2018-07-13T02:50:40.684Z,18.57
2018-07-13T02:51:40.834Z,18.57
2018-07-13T02:52:40.749Z,18.56
2018-07-13T02:53:40.717Z,18.57
2018-07-13T02:54:40.704Z,18.6
2018-07-13T02:55:40.722Z,18.57
2018-07-13T02:56:40.666Z,18.6
2018-07-13T02:57:40.679Z,18.6
2018-07-13T02:58:40.682Z,18.61
2018-07-13T02:59:41.137Z,18.63
2018-07-13T03:00:40.700Z,18.63
2018-07-13T03:01:40.684Z,18.6
2018-07-13T03:02:40.736Z,18.49
2018-07-13T03:03:40.684Z,18.3
2018-07-13T03:04:40.754Z,18.12
2018-07-13T03:05:40.723Z,18.01
2018-07-13T03:06:40.728Z,18.02
2018-07-13T03:07:40.746Z,18.02
2018-07-13T03:08:40.697Z,18.01
2018-07-13T03:09:40.685Z,18.05
2018-07-13T03:10:40.676Z,17.95
2018-07-13T03:11:40.704Z,17.98
2018-07-13T03:12:40.677Z,17.99
2018-07-13T03:13:40.699Z,18.01
2018-07-13T03:14:40.820Z,17.98
2018-07-13T03:15:40.690Z,17.98
2018-07-13T03:16:40.706Z,17.94
2018-07-13T03:17:40.894Z,17.94
2018-07-13T03:18:40.680Z,17.92
2018-07-13T03:19:40.881Z,17.89
2018-07-13T03:20:40.695Z,17.89
2018-07-13T03:21:40.822Z,17.84
2018-07-13T03:22:40.750Z,17.82
2018-07-13T03:23:40.702Z,17.81
2018-07-13T03:24:40.726Z,17.82
2018-07-13T03:25:40.739Z,17.81
2018-07-13T03:26:40.691Z,17.8
2018-07-13T03:27:40.744Z,17.78
2018-07-13T03:28:40.708Z,17.78
2018-07-13T03:29:40.692Z,17.77
2018-07-13T03:30:40.712Z,17.77
2018-07-13T03:31:40.712Z,17.76
2018-07-13T03:32:40.716Z,17.77
2018-07-13T03:33:40.707Z,17.74
2018-07-13T03:34:40.734Z,17.76
2018-07-13T03:35:40.766Z,17.76
2018-07-13T03:36:40.714Z,17.76
2018-07-13T03:37:40.723Z,17.78
2018-07-13T03:38:40.706Z,17.78
2018-07-13T03:39:40.735Z,17.78
2018-07-13T03:40:40.701Z,17.74
2018-07-13T03:41:40.751Z,17.74
2018-07-13T03:42:41.244Z,17.69
2018-07-13T03:43:40.700Z,17.69
2018-07-13T03:44:40.701Z,17.71
2018-07-13T03:45:40.718Z,17.71
2018-07-13T03:46:40.679Z,17.69
2018-07-13T03:47:40.774Z,17.69
2018-07-13T03:48:40.789Z,17.66
2018-07-13T03:49:40.698Z,17.64
2018-07-13T03:50:40.727Z,17.63
2018-07-13T03:51:40.732Z,17.64
2018-07-13T03:52:40.741Z,17.61
2018-07-13T03:53:40.703Z,17.61
2018-07-13T03:54:40.744Z,17.64
2018-07-13T03:55:40.766Z,17.64
2018-07-13T03:56:40.753Z,17.64
2018-07-13T03:57:40.769Z,17.67
2018-07-13T03:58:40.749Z,17.66
2018-07-13T03:59:40.802Z,17.64
2018-07-13T04:00:40.739Z,17.64
2018-07-13T04:01:40.728Z,17.67
2018-07-13T04:02:40.866Z,17.69
2018-07-13T04:03:40.721Z,17.7
2018-07-13T04:04:40.747Z,17.7
2018-07-13T04:05:40.764Z,17.71
2018-07-13T04:06:40.778Z,17.71
2018-07-13T04:07:40.721Z,17.73
2018-07-13T04:08:40.778Z,17.74
2018-07-13T04:09:40.760Z,17.76
2018-07-13T04:10:40.736Z,17.74
2018-07-13T04:11:40.743Z,17.74
2018-07-13T04:12:40.730Z,17.74
2018-07-13T04:13:40.739Z,17.69
2018-07-13T04:14:40.916Z,17.66
2018-07-13T04:15:40.761Z,17.67
2018-07-13T04:16:40.751Z,17.66
2018-07-13T04:17:40.715Z,17.6
2018-07-13T04:18:41.535Z,17.58
2018-07-13T04:19:41.456Z,17.6
2018-07-13T04:20:41.461Z,17.58
2018-07-13T04:21:41.503Z,17.58
2018-07-13T04:22:41.500Z,17.61
2018-07-13T04:23:41.523Z,17.61
2018-07-13T04:24:41.447Z,17.64
2018-07-13T04:25:41.592Z,17.69
2018-07-13T04:26:41.488Z,17.71
2018-07-13T04:27:41.495Z,17.76
2018-07-13T04:28:41.568Z,17.77
2018-07-13T04:29:41.476Z,17.8
2018-07-13T04:30:41.485Z,17.82
2018-07-13T04:31:41.687Z,17.84
2018-07-13T04:32:41.515Z,17.85
2018-07-13T04:33:41.850Z,17.88
2018-07-13T04:34:41.564Z,17.89
2018-07-13T04:35:41.464Z,17.92
2018-07-13T04:36:41.496Z,17.92
2018-07-13T04:37:41.583Z,17.94
2018-07-13T04:38:41.534Z,17.98
2018-07-13T04:39:41.506Z,18.01
2018-07-13T04:40:41.613Z,18.02
2018-07-13T04:41:41.496Z,18.02
2018-07-13T04:42:41.564Z,18.05
2018-07-13T04:43:41.493Z,18.06
2018-07-13T04:44:41.502Z,18.08
2018-07-13T04:45:41.612Z,18.08
2018-07-13T04:46:41.596Z,18.09
2018-07-13T04:47:41.502Z,18.11
2018-07-13T04:48:41.691Z,18.12
2018-07-13T04:49:41.617Z,18.12
2018-07-13T04:50:41.483Z,18.13
2018-07-13T04:51:41.981Z,18.13
2018-07-13T04:52:41.788Z,18.13
2018-07-13T04:53:41.600Z,18.15
2018-07-13T04:54:41.490Z,18.13
2018-07-13T04:55:41.454Z,18.12
2018-07-13T04:56:41.510Z,18.16
2018-07-13T04:57:41.638Z,18.15
2018-07-13T04:58:41.451Z,18.16
2018-07-13T04:59:41.521Z,18.17
2018-07-13T05:00:41.762Z,18.16
2018-07-13T05:01:41.552Z,18.19
2018-07-13T05:02:41.564Z,18.19
2018-07-13T05:03:41.555Z,18.16
2018-07-13T05:04:41.531Z,18.16
2018-07-13T05:05:41.324Z,18.19
2018-07-13T05:06:41.554Z,18.2
2018-07-13T05:07:41.501Z,18.22
2018-07-13T05:08:41.513Z,18.23
2018-07-13T05:09:41.511Z,18.27
2018-07-13T05:10:41.561Z,18.29
2018-07-13T05:11:41.565Z,18.3
2018-07-13T05:12:41.541Z,18.32
2018-07-13T05:13:41.548Z,18.33
2018-07-13T05:14:41.593Z,18.33
2018-07-13T05:15:41.757Z,18.33
2018-07-13T05:16:41.584Z,18.36
2018-07-13T05:17:40.833Z,18.35
2018-07-13T05:18:41.690Z,18.36
2018-07-13T05:19:40.764Z,18.39
2018-07-13T05:20:40.815Z,18.4
2018-07-13T05:21:40.786Z,18.39
2018-07-13T05:22:40.813Z,18.43
2018-07-13T05:23:40.794Z,18.4
2018-07-13T05:24:40.816Z,18.4
2018-07-13T05:25:41.724Z,18.35
2018-07-13T05:26:40.787Z,18.33
2018-07-13T05:27:40.810Z,18.33
2018-07-13T05:28:40.835Z,18.33
2018-07-13T05:29:40.832Z,18.3
2018-07-13T05:30:41.647Z,18.32
2018-07-13T05:31:40.760Z,18.33
2018-07-13T05:32:40.818Z,18.32
2018-07-13T05:33:40.791Z,18.3
2018-07-13T05:34:40.762Z,18.35
2018-07-13T05:35:40.778Z,18.35
2018-07-13T05:36:40.787Z,18.33
2018-07-13T05:37:40.782Z,18.35
2018-07-13T05:38:40.790Z,18.36
2018-07-13T05:39:40.812Z,18.42
2018-07-13T05:40:40.831Z,18.43
2018-07-13T05:41:40.795Z,18.46
2018-07-13T05:42:40.798Z,18.47
2018-07-13T05:43:40.816Z,18.5
2018-07-13T05:44:40.803Z,18.5
2018-07-13T05:45:44.199Z,18.54
2018-07-13T05:46:42.143Z,18.56
2018-07-13T05:47:40.787Z,18.6
2018-07-13T05:48:40.796Z,18.61
2018-07-13T05:49:41.639Z,18.64
2018-07-13T05:50:40.797Z,18.68
2018-07-13T05:51:40.790Z,18.68
2018-07-13T05:52:40.770Z,18.72
2018-07-13T05:53:41.850Z,18.74
2018-07-13T05:54:40.849Z,18.77
2018-07-13T05:55:40.789Z,18.82
2018-07-13T05:56:40.803Z,18.84
2018-07-13T05:57:40.819Z,18.85
2018-07-13T05:58:41.826Z,18.88
2018-07-13T05:59:40.840Z,18.92
2018-07-13T06:00:41.771Z,18.94
2018-07-13T06:01:40.780Z,18.97
2018-07-13T06:02:41.673Z,19.01
2018-07-13T06:03:40.794Z,19.03
2018-07-13T06:04:40.811Z,19.08
2018-07-13T06:05:41.601Z,19.09
2018-07-13T06:06:40.790Z,19.1
2018-07-13T06:07:40.807Z,19.13
2018-07-13T06:08:41.712Z,19.19
2018-07-13T06:09:41.887Z,19.21
2018-07-13T06:10:40.814Z,19.21
2018-07-13T06:11:41.742Z,19.22
2018-07-13T06:12:40.823Z,19.25
2018-07-13T06:13:40.802Z,19.25
2018-07-13T06:14:41.864Z,19.27
2018-07-13T06:15:41.996Z,19.27
2018-07-13T06:16:41.586Z,19.23
2018-07-13T06:17:41.236Z,19.25
2018-07-13T06:18:40.973Z,19.25
2018-07-13T06:19:40.925Z,19.27
2018-07-13T06:20:40.863Z,19.27
2018-07-13T06:21:40.867Z,19.12
2018-07-13T06:22:40.820Z,19.05
2018-07-13T06:23:40.830Z,19.15
2018-07-13T06:24:40.815Z,19.17
2018-07-13T06:25:40.866Z,19.23
2018-07-13T06:26:41.134Z,19.25
2018-07-13T06:27:40.820Z,19.26
2018-07-13T06:28:40.946Z,19.16
2018-07-13T06:29:40.825Z,19.15
2018-07-13T06:30:40.811Z,19.25
2018-07-13T06:31:40.977Z,19.26
2018-07-13T06:32:41.005Z,19.19
2018-07-13T06:33:41.020Z,19.16
2018-07-13T06:34:40.835Z,19.22
2018-07-13T06:35:40.943Z,19.21
2018-07-13T06:36:42.102Z,19.21
2018-07-13T06:37:41.013Z,19.16
2018-07-13T06:38:40.969Z,19.15
2018-07-13T06:39:40.917Z,19.21
2018-07-13T06:40:40.979Z,19.26
2018-07-13T06:41:40.873Z,19.27
2018-07-13T06:42:41.022Z,19.3
2018-07-13T06:43:41.046Z,19.37
2018-07-13T06:44:40.972Z,19.42
2018-07-13T06:45:40.940Z,19.49
2018-07-13T06:46:40.987Z,19.53
2018-07-13T06:47:40.832Z,19.6
2018-07-13T06:48:40.940Z,19.61
2018-07-13T06:49:40.847Z,19.7
2018-07-13T06:50:41.127Z,19.74
2018-07-13T06:51:40.861Z,19.75
2018-07-13T06:52:42.144Z,19.81
2018-07-13T06:53:40.902Z,19.86
2018-07-13T06:54:40.991Z,19.88
2018-07-13T06:55:40.821Z,19.84
2018-07-13T06:56:41.035Z,19.88
2018-07-13T06:57:40.841Z,19.91
2018-07-13T06:58:40.850Z,19.96
2018-07-13T06:59:40.953Z,20.01
2018-07-13T07:00:40.999Z,20.04
2018-07-13T07:01:41.039Z,20.04
2018-07-13T07:02:40.876Z,20.11
2018-07-13T07:03:40.956Z,20.11
2018-07-13T07:04:40.909Z,20.11
2018-07-13T07:05:40.865Z,20.09
2018-07-13T07:06:40.869Z,20.11
2018-07-13T07:07:41.007Z,20.16
2018-07-13T07:08:40.820Z,20.2
2018-07-13T07:09:40.861Z,20.19
2018-07-13T07:10:40.873Z,20.23
2018-07-13T07:11:40.913Z,20.27
2018-07-13T07:12:40.906Z,20.29
2018-07-13T07:13:40.924Z,20.32
2018-07-13T07:14:40.992Z,20.44
2018-07-13T07:15:40.950Z,20.44
2018-07-13T07:16:40.945Z,20.44
2018-07-13T07:17:41.592Z,20.46
2018-07-13T07:18:41.549Z,20.48
2018-07-13T07:19:40.921Z,20.52
2018-07-13T07:20:40.909Z,20.6
2018-07-13T07:21:41.486Z,20.71
2018-07-13T07:22:40.883Z,20.74
2018-07-13T07:23:40.937Z,20.74
2018-07-13T07:24:40.947Z,20.79
2018-07-13T07:25:41.453Z,20.84
2018-07-13T07:26:40.965Z,20.84
2018-07-13T07:27:40.940Z,20.91
2018-07-13T07:28:40.852Z,20.92
2018-07-13T07:29:40.932Z,20.95
2018-07-13T07:30:41.235Z,21.01
2018-07-13T07:31:40.959Z,21.02
2018-07-13T07:32:40.883Z,21.1
2018-07-13T07:33:41.033Z,21.16
2018-07-13T07:34:40.997Z,21.19
2018-07-13T07:35:40.974Z,21.23
2018-07-13T07:36:41.289Z,21.24
2018-07-13T07:37:40.985Z,21.27
2018-07-13T07:38:40.997Z,21.3
2018-07-13T07:39:40.928Z,21.34
2018-07-13T07:40:41.002Z,21.33
2018-07-13T07:41:40.966Z,21.33
2018-07-13T07:42:40.868Z,21.36
2018-07-13T07:43:40.959Z,21.41
2018-07-13T07:44:40.973Z,21.43
2018-07-13T07:45:41.039Z,21.46
2018-07-13T07:46:40.979Z,21.53
2018-07-13T07:47:41.083Z,21.56
2018-07-13T07:48:40.987Z,21.57
2018-07-13T07:49:40.968Z,21.49
2018-07-13T07:50:40.970Z,21.54
2018-07-13T07:51:40.956Z,21.61
2018-07-13T07:52:40.931Z,21.67
2018-07-13T07:53:40.891Z,21.72
2018-07-13T07:54:40.876Z,21.77
2018-07-13T07:55:40.922Z,21.79
2018-07-13T07:56:40.872Z,21.81
2018-07-13T07:57:41.093Z,21.82
2018-07-13T07:58:40.983Z,21.78
2018-07-13T07:59:41.010Z,21.77
2018-07-13T08:00:40.917Z,21.78
2018-07-13T08:01:41.111Z,21.88
2018-07-13T08:02:40.944Z,21.91
2018-07-13T08:03:40.964Z,21.94
2018-07-13T08:04:40.943Z,21.98
2018-07-13T08:05:41.061Z,22.06
2018-07-13T08:06:41.764Z,22.06
2018-07-13T08:07:41.474Z,22.11
2018-07-13T08:08:41.046Z,22.12
2018-07-13T08:09:40.920Z,22.15
2018-07-13T08:10:41.099Z,22.22
2018-07-13T08:11:41.053Z,22.27
2018-07-13T08:12:40.957Z,22.2
2018-07-13T08:13:41.144Z,22.2
2018-07-13T08:14:41.286Z,22.2
2018-07-13T08:15:40.938Z,22.17
2018-07-13T08:16:41.005Z,22.22
2018-07-13T08:17:44.854Z,22.3
2018-07-13T08:18:40.949Z,22.43
2018-07-13T08:19:40.980Z,22.48
2018-07-13T08:20:40.921Z,22.51
2018-07-13T08:21:40.918Z,22.57
2018-07-13T08:22:40.928Z,22.6
2018-07-13T08:23:40.890Z,22.54
2018-07-13T08:24:40.921Z,22.56
2018-07-13T08:25:40.911Z,22.56
2018-07-13T08:26:41.112Z,22.6
2018-07-13T08:27:40.915Z,22.67
2018-07-13T08:28:40.934Z,22.76
2018-07-13T08:29:40.941Z,22.84
2018-07-13T08:30:40.872Z,22.89
2018-07-13T08:31:40.980Z,22.94
2018-07-13T08:32:40.925Z,23.07
2018-07-13T08:33:40.894Z,23.07
2018-07-13T08:34:40.897Z,23.12
2018-07-13T08:35:40.984Z,23.09
2018-07-13T08:36:40.919Z,23.06
2018-07-13T08:37:41.056Z,23.07
2018-07-13T08:38:40.924Z,23.11
2018-07-13T08:39:40.935Z,23.19
2018-07-13T08:40:40.902Z,23.22
2018-07-13T08:41:40.877Z,23.32
2018-07-13T08:42:40.983Z,23.34
2018-07-13T08:43:41.053Z,23.39
2018-07-13T08:44:40.871Z,23.37
2018-07-13T08:45:41.009Z,23.37
2018-07-13T08:46:40.885Z,23.39
2018-07-13T08:47:40.921Z,23.41
2018-07-13T08:48:40.914Z,23.47
2018-07-13T08:49:40.978Z,23.61
2018-07-13T08:50:40.934Z,23.62
2018-07-13T08:51:41.331Z,23.62
2018-07-13T08:52:40.920Z,23.65
2018-07-13T08:53:40.947Z,23.62
2018-07-13T08:54:40.976Z,23.68
2018-07-13T08:55:40.905Z,23.73
2018-07-13T08:56:41.105Z,23.81
2018-07-13T08:57:40.956Z,23.91
2018-07-13T08:58:41.072Z,23.82
2018-07-13T08:59:41.128Z,23.88
2018-07-13T09:00:41.030Z,23.96
2018-07-13T09:01:41.127Z,23.77
2018-07-13T09:02:40.920Z,23.84
2018-07-13T09:03:40.979Z,23.89
2018-07-13T09:04:41.011Z,23.91
2018-07-13T09:05:41.288Z,23.92
2018-07-13T09:06:41.057Z,23.92
2018-07-13T09:07:41.314Z,23.93
2018-07-13T09:08:40.935Z,24.02
2018-07-13T09:09:40.967Z,24.16
2018-07-13T09:10:41.077Z,24.24
2018-07-13T09:11:40.967Z,24.27
2018-07-13T09:12:41.521Z,24.27
2018-07-13T09:13:41.016Z,24.24
2018-07-13T09:14:40.937Z,24.19
2018-07-13T09:15:40.929Z,24.17
2018-07-13T09:16:40.887Z,24.2
2018-07-13T09:17:40.923Z,24.39
2018-07-13T09:18:40.993Z,24.39
2018-07-13T09:19:40.883Z,24.37
2018-07-13T09:20:41.028Z,24.33
2018-07-13T09:21:41.200Z,24.4
2018-07-13T09:22:40.965Z,24.4
2018-07-13T09:23:40.927Z,24.42
2018-07-13T09:24:41.049Z,24.44
2018-07-13T09:25:40.937Z,24.51
2018-07-13T09:26:40.962Z,24.53
2018-07-13T09:27:41.029Z,24.53
2018-07-13T09:28:40.996Z,24.63
2018-07-13T09:29:41.076Z,24.72
2018-07-13T09:30:40.986Z,24.71
2018-07-13T09:31:40.957Z,24.74
2018-07-13T09:32:40.998Z,24.81
2018-07-13T09:33:41.310Z,24.86
2018-07-13T09:34:40.956Z,24.94
2018-07-13T09:35:41.041Z,25.1
2018-07-13T09:36:40.983Z,25.03
2018-07-13T09:37:40.915Z,25.01
2018-07-13T09:38:40.925Z,24.99
2018-07-13T09:39:40.940Z,25.03
2018-07-13T09:40:41.009Z,25.16
2018-07-13T09:41:41.018Z,25.17
2018-07-13T09:42:40.937Z,25.22
2018-07-13T09:43:40.939Z,25.23
2018-07-13T09:44:40.910Z,25.27
2018-07-13T09:45:40.925Z,25.33
2018-07-13T09:46:41.175Z,25.36
2018-07-13T09:47:40.918Z,25.36
2018-07-13T09:48:40.931Z,25.51
2018-07-13T09:49:41.010Z,25.47
2018-07-13T09:50:40.937Z,25.53
2018-07-13T09:51:40.942Z,25.43
2018-07-13T09:52:40.949Z,25.32
2018-07-13T09:53:41.137Z,25.43
2018-07-13T09:54:40.955Z,25.38
2018-07-13T09:55:40.910Z,25.44
2018-07-13T09:56:41.071Z,25.48
2018-07-13T09:57:40.966Z,25.56
2018-07-13T09:58:41.006Z,25.37
2018-07-13T09:59:41.009Z,25.37
2018-07-13T10:00:41.656Z,25.36
2018-07-13T10:01:43.592Z,25.38
2018-07-13T10:02:40.990Z,25.44
2018-07-13T10:03:41.042Z,25.48
2018-07-13T10:04:41.009Z,25.65
2018-07-13T10:05:40.935Z,25.75
2018-07-13T10:06:41.006Z,25.75
2018-07-13T10:07:41.004Z,25.81
2018-07-13T10:08:40.993Z,25.82
2018-07-13T10:09:41.055Z,25.84
2018-07-13T10:10:40.983Z,25.85
2018-07-13T10:11:41.019Z,25.87
2018-07-13T10:12:40.965Z,25.88
2018-07-13T10:13:40.980Z,25.98
2018-07-13T10:14:40.994Z,25.93
2018-07-13T10:15:40.944Z,25.96
2018-07-13T10:16:41.146Z,26.1
2018-07-13T10:17:42.594Z,26.12
2018-07-13T10:18:41.078Z,26.13
2018-07-13T10:19:41.023Z,26.12
2018-07-13T10:20:41.167Z,26.17
2018-07-13T10:21:40.961Z,26.23
2018-07-13T10:22:41.032Z,26.29
2018-07-13T10:23:41.022Z,26.33
2018-07-13T10:24:41.038Z,26.26
2018-07-13T10:25:41.061Z,26.34
2018-07-13T10:26:40.988Z,26.37
2018-07-13T10:27:40.996Z,26.42
2018-07-13T10:28:41.221Z,26.43
2018-07-13T10:29:43.512Z,26.34
2018-07-13T10:30:41.112Z,26.27
2018-07-13T10:31:41.041Z,26.22
2018-07-13T10:32:41.078Z,26.34
2018-07-13T10:33:41.770Z,26.17
2018-07-13T10:34:41.110Z,26.23
2018-07-13T10:35:41.326Z,26.22
2018-07-13T10:36:40.971Z,26.36
2018-07-13T10:37:41.065Z,26.44
2018-07-13T10:38:41.006Z,26.46
2018-07-13T10:39:41.141Z,26.48
2018-07-13T10:40:41.014Z,26.4
2018-07-13T10:41:41.802Z,26.22
2018-07-13T10:42:41.070Z,26.08
2018-07-13T10:43:41.012Z,26.1
2018-07-13T10:44:41.039Z,26.15
2018-07-13T10:45:41.132Z,26.17
2018-07-13T10:46:41.088Z,26.26
2018-07-13T10:47:41.118Z,26.32
2018-07-13T10:48:41.074Z,26.36
2018-07-13T10:49:41.029Z,26.57
2018-07-13T10:50:41.041Z,26.72
2018-07-13T10:51:41.225Z,26.64
2018-07-13T10:52:40.962Z,26.74
2018-07-13T10:53:40.978Z,26.77
2018-07-13T10:54:41.003Z,26.82
2018-07-13T10:55:41.021Z,26.87
2018-07-13T10:56:40.969Z,26.95
2018-07-13T10:57:41.032Z,27.27
2018-07-13T10:58:41.383Z,27.12
2018-07-13T10:59:41.077Z,27.1
2018-07-13T11:00:41.007Z,27.05
2018-07-13T11:01:41.018Z,27.03
2018-07-13T11:02:41.001Z,26.95
2018-07-13T11:03:41.083Z,26.98
2018-07-13T11:04:41.053Z,26.95
2018-07-13T11:05:40.989Z,27.05
2018-07-13T11:06:41.065Z,26.89
2018-07-13T11:07:41.020Z,26.68
2018-07-13T11:08:41.109Z,26.75
2018-07-13T11:09:41.057Z,26.74
2018-07-13T11:10:40.966Z,26.67
2018-07-13T11:11:41.069Z,26.71
2018-07-13T11:12:41.021Z,26.94
2018-07-13T11:13:41.213Z,27.01
2018-07-13T11:14:41.078Z,27.09
2018-07-13T11:15:41.017Z,27.16
2018-07-13T11:16:40.999Z,27.17
2018-07-13T11:17:44.007Z,27.12
2018-07-13T11:18:41.644Z,27.19
2018-07-13T11:19:41.011Z,26.88
2018-07-13T11:20:41.019Z,26.75
2018-07-13T11:21:41.027Z,26.68
2018-07-13T11:22:41.035Z,26.79
2018-07-13T11:23:41.038Z,26.94
2018-07-13T11:24:41.988Z,26.96
2018-07-13T11:25:41.031Z,27.01
2018-07-13T11:26:41.042Z,27.07
2018-07-13T11:27:41.140Z,27.23
2018-07-13T11:28:41.007Z,27.33
2018-07-13T11:29:41.201Z,27.37
2018-07-13T11:30:41.077Z,27.44
2018-07-13T11:31:41.173Z,27.53
2018-07-13T11:32:41.061Z,27.64
2018-07-13T11:33:41.031Z,27.65
2018-07-13T11:34:41.111Z,27.88
2018-07-13T11:35:41.053Z,27.71
2018-07-13T11:36:41.474Z,27.57
2018-07-13T11:37:41.229Z,27.58
2018-07-13T11:38:41.004Z,27.57
2018-07-13T11:39:43.180Z,27.61
2018-07-13T11:40:41.079Z,27.7
2018-07-13T11:41:41.143Z,27.74
2018-07-13T11:42:41.010Z,27.79
2018-07-13T11:43:41.161Z,27.78
2018-07-13T11:44:41.045Z,27.82
2018-07-13T11:45:41.739Z,27.67
2018-07-13T11:46:41.180Z,27.56
2018-07-13T11:47:41.198Z,27.67
2018-07-13T11:48:41.069Z,27.68
2018-07-13T11:49:41.084Z,27.84
2018-07-13T11:50:41.202Z,27.88
2018-07-13T11:51:41.106Z,27.88
2018-07-13T11:52:41.118Z,27.84
2018-07-13T11:53:42.147Z,27.81
2018-07-13T11:54:43.280Z,27.84
2018-07-13T11:55:41.239Z,27.91
2018-07-13T11:56:41.244Z,27.98
2018-07-13T11:57:42.280Z,28.02
2018-07-13T11:58:41.199Z,28.13
2018-07-13T11:59:41.285Z,28.16
2018-07-13T12:00:41.591Z,28.11
2018-07-13T12:01:41.182Z,28.19
2018-07-13T12:02:41.099Z,28.27
2018-07-13T12:03:41.229Z,28.15
2018-07-13T12:04:41.410Z,28.19
2018-07-13T12:05:41.210Z,28.32
2018-07-13T12:06:41.228Z,28.36
2018-07-13T12:07:41.906Z,28.41
2018-07-13T12:08:41.128Z,28.51
2018-07-13T12:09:41.139Z,28.54
2018-07-13T12:10:41.145Z,28.63
2018-07-13T12:11:41.253Z,28.6
2018-07-13T12:12:41.503Z,28.48
2018-07-13T12:13:41.162Z,28.46
2018-07-13T12:14:41.788Z,28.52
2018-07-13T12:15:41.158Z,28.57
2018-07-13T12:16:41.530Z,28.5
2018-07-13T12:17:41.463Z,28.11
2018-07-13T12:18:41.191Z,28.15
2018-07-13T12:19:41.022Z,28.19
2018-07-13T12:20:41.067Z,28.19
2018-07-13T12:21:41.115Z,28.18
2018-07-13T12:22:41.239Z,28.23
2018-07-13T12:23:42.069Z,28.26
2018-07-13T12:24:41.151Z,28.29
2018-07-13T12:25:41.148Z,28.29
2018-07-13T12:26:41.088Z,28.34
2018-07-13T12:27:41.086Z,28.39
2018-07-13T12:28:41.060Z,28.44
2018-07-13T12:29:41.117Z,28.4
2018-07-13T12:30:41.082Z,28.24
2018-07-13T12:31:41.201Z,28.06
2018-07-13T12:32:41.288Z,28.13
2018-07-13T12:33:41.957Z,28.13
2018-07-13T12:34:41.162Z,28.16
2018-07-13T12:35:41.069Z,28.18
2018-07-13T12:36:41.243Z,28.13
2018-07-13T12:37:41.111Z,28.16
2018-07-13T12:38:41.127Z,28.26
2018-07-13T12:39:41.360Z,28.36
2018-07-13T12:40:41.125Z,28.48
2018-07-13T12:41:41.133Z,28.57
2018-07-13T12:42:41.280Z,28.67
2018-07-13T12:43:41.063Z,28.77
2018-07-13T12:44:41.128Z,28.82
2018-07-13T12:45:42.116Z,28.79
2018-07-13T12:46:41.115Z,28.82
2018-07-13T12:47:41.201Z,28.73
2018-07-13T12:48:41.424Z,28.74
2018-07-13T12:49:41.147Z,28.71
2018-07-13T12:50:41.062Z,28.89
2018-07-13T12:51:41.246Z,28.92
2018-07-13T12:52:41.270Z,28.92
2018-07-13T12:53:41.110Z,28.77
2018-07-13T12:54:41.725Z,28.51
2018-07-13T12:55:41.108Z,28.4